sensor_id;sensor_type;location;lat;lon;timestamp;P1;durP1;ratioP1;P2;durP2;ratioP2
60368;SDS011;46208;44.634;10.492;2023-04-12T00:01:10;2.53;;;1.02;;
60368;SDS011;46208;44.634;10.492;2023-04-12T00:04:14;1.63;;;1.00;;
60368;SDS011;46208;44.634;10.492;2023-04-12T00:07:18;0.77;;;0.75;;
60368;SDS011;46208;44.634;10.492;2023-04-12T00:10:23;0.95;;;0.95;;
60368;SDS011;46208;44.634;10.492;2023-04-12T00:13:26;0.82;;;0.70;;
60368;SDS011;46208;44.634;10.492;2023-04-12T00:16:30;0.70;;;0.68;;
60368;SDS011;46208;44.634;10.492;2023-04-12T00:19:33;1.80;;;0.68;;
60368;SDS011;46208;44.634;10.492;2023-04-12T00:22:40;1.15;;;1.00;;
60368;SDS011;46208;44.634;10.492;2023-04-12T00:25:44;0.90;;;0.60;;
60368;SDS011;46208;44.634;10.492;2023-04-12T00:28:47;1.08;;;0.65;;
60368;SDS011;46208;44.634;10.492;2023-04-12T00:31:51;0.63;;;0.57;;
60368;SDS011;46208;44.634;10.492;2023-04-12T00:34:54;0.70;;;0.55;;
60368;SDS011;46208;44.634;10.492;2023-04-12T00:37:57;1.02;;;1.02;;
60368;SDS011;46208;44.634;10.492;2023-04-12T00:41:01;1.00;;;0.93;;
60368;SDS011;46208;44.634;10.492;2023-04-12T00:44:04;0.88;;;0.88;;
60368;SDS011;46208;44.634;10.492;2023-04-12T00:47:08;1.00;;;0.80;;
60368;SDS011;46208;44.634;10.492;2023-04-12T00:50:11;0.95;;;0.90;;
60368;SDS011;46208;44.634;10.492;2023-04-12T00:53:14;1.35;;;1.00;;
60368;SDS011;46208;44.634;10.492;2023-04-12T00:56:18;0.88;;;0.63;;
60368;SDS011;46208;44.634;10.492;2023-04-12T00:59:22;0.77;;;0.77;;
60368;SDS011;46208;44.634;10.492;2023-04-12T01:02:26;0.75;;;0.75;;
60368;SDS011;46208;44.634;10.492;2023-04-12T01:05:29;0.50;;;0.50;;
60368;SDS011;46208;44.634;10.492;2023-04-12T01:14:51;0.43;;;0.43;;
60368;SDS011;46208;44.634;10.492;2023-04-12T01:17:58;0.55;;;0.55;;
60368;SDS011;46208;44.634;10.492;2023-04-12T01:21:08;1.20;;;0.75;;
60368;SDS011;46208;44.634;10.492;2023-04-12T01:27:26;0.68;;;0.68;;
60368;SDS011;46208;44.634;10.492;2023-04-12T01:30:31;0.90;;;0.82;;
60368;SDS011;46208;44.634;10.492;2023-04-12T01:33:36;0.52;;;0.43;;
60368;SDS011;46208;44.634;10.492;2023-04-12T01:36:40;1.15;;;0.98;;
60368;SDS011;46208;44.634;10.492;2023-04-12T01:39:46;0.75;;;0.68;;
60368;SDS011;46208;44.634;10.492;2023-04-12T01:42:49;0.80;;;0.55;;
60368;SDS011;46208;44.634;10.492;2023-04-12T01:45:53;0.50;;;0.50;;
60368;SDS011;46208;44.634;10.492;2023-04-12T01:48:56;1.92;;;0.68;;
60368;SDS011;46208;44.634;10.492;2023-04-12T01:52:07;0.60;;;0.60;;
60368;SDS011;46208;44.634;10.492;2023-04-12T01:55:12;1.30;;;1.20;;
60368;SDS011;46208;44.634;10.492;2023-04-12T01:58:19;0.40;;;0.40;;
60368;SDS011;46208;44.634;10.492;2023-04-12T02:01:23;0.52;;;0.43;;
60368;SDS011;46208;44.634;10.492;2023-04-12T02:04:27;0.82;;;0.82;;
60368;SDS011;46208;44.634;10.492;2023-04-12T02:07:31;0.98;;;0.80;;
60368;SDS011;46208;44.634;10.492;2023-04-12T02:10:34;1.30;;;1.20;;
60368;SDS011;46208;44.634;10.492;2023-04-12T02:13:40;1.17;;;0.80;;
60368;SDS011;46208;44.634;10.492;2023-04-12T02:16:44;0.90;;;0.90;;
60368;SDS011;46208;44.634;10.492;2023-04-12T02:19:48;1.35;;;0.88;;
60368;SDS011;46208;44.634;10.492;2023-04-12T02:22:51;2.28;;;0.90;;
60368;SDS011;46208;44.634;10.492;2023-04-12T02:25:55;0.82;;;0.82;;
60368;SDS011;46208;44.634;10.492;2023-04-12T02:28:58;0.95;;;0.82;;
60368;SDS011;46208;44.634;10.492;2023-04-12T02:32:02;0.60;;;0.60;;
60368;SDS011;46208;44.634;10.492;2023-04-12T02:35:05;1.15;;;1.05;;
60368;SDS011;46208;44.634;10.492;2023-04-12T02:38:11;0.68;;;0.68;;
60368;SDS011;46208;44.634;10.492;2023-04-12T02:41:17;0.70;;;0.70;;
60368;SDS011;46208;44.634;10.492;2023-04-12T02:44:21;1.75;;;0.93;;
60368;SDS011;46208;44.634;10.492;2023-04-12T02:47:40;2.65;;;1.60;;
60368;SDS011;46208;44.634;10.492;2023-04-12T02:50:45;3.78;;;1.33;;
60368;SDS011;46208;44.634;10.492;2023-04-12T02:53:55;1.10;;;1.00;;
60368;SDS011;46208;44.634;10.492;2023-04-12T02:57:01;1.00;;;0.90;;
60368;SDS011;46208;44.634;10.492;2023-04-12T03:00:15;1.30;;;0.80;;
60368;SDS011;46208;44.634;10.492;2023-04-12T03:03:22;2.30;;;0.95;;
60368;SDS011;46208;44.634;10.492;2023-04-12T03:06:30;1.48;;;0.77;;
60368;SDS011;46208;44.634;10.492;2023-04-12T03:09:35;0.73;;;0.73;;
60368;SDS011;46208;44.634;10.492;2023-04-12T03:12:41;1.48;;;1.00;;
60368;SDS011;46208;44.634;10.492;2023-04-12T03:15:56;2.58;;;1.00;;
60368;SDS011;46208;44.634;10.492;2023-04-12T03:19:07;1.42;;;0.73;;
60368;SDS011;46208;44.634;10.492;2023-04-12T03:22:10;1.02;;;0.95;;
60368;SDS011;46208;44.634;10.492;2023-04-12T03:25:17;1.67;;;1.35;;
60368;SDS011;46208;44.634;10.492;2023-04-12T03:28:26;1.25;;;1.05;;
60368;SDS011;46208;44.634;10.492;2023-04-12T03:31:30;1.35;;;1.20;;
60368;SDS011;46208;44.634;10.492;2023-04-12T03:34:39;1.42;;;1.33;;
60368;SDS011;46208;44.634;10.492;2023-04-12T03:37:48;2.22;;;1.33;;
60368;SDS011;46208;44.634;10.492;2023-04-12T03:40:51;1.40;;;1.15;;
60368;SDS011;46208;44.634;10.492;2023-04-12T03:44:02;2.47;;;0.98;;
60368;SDS011;46208;44.634;10.492;2023-04-12T03:47:07;2.97;;;1.20;;
60368;SDS011;46208;44.634;10.492;2023-04-12T03:50:12;2.15;;;1.40;;
60368;SDS011;46208;44.634;10.492;2023-04-12T03:53:21;1.50;;;1.40;;
60368;SDS011;46208;44.634;10.492;2023-04-12T03:56:25;1.95;;;1.85;;
60368;SDS011;46208;44.634;10.492;2023-04-12T03:59:32;2.20;;;1.40;;
60368;SDS011;46208;44.634;10.492;2023-04-12T04:02:37;1.50;;;1.05;;
60368;SDS011;46208;44.634;10.492;2023-04-12T04:05:41;1.42;;;1.33;;
60368;SDS011;46208;44.634;10.492;2023-04-12T04:08:45;2.75;;;1.83;;
60368;SDS011;46208;44.634;10.492;2023-04-12T04:11:49;1.25;;;1.15;;
60368;SDS011;46208;44.634;10.492;2023-04-12T04:14:55;1.73;;;1.00;;
60368;SDS011;46208;44.634;10.492;2023-04-12T04:18:06;2.85;;;1.20;;
60368;SDS011;46208;44.634;10.492;2023-04-12T04:21:10;0.98;;;0.95;;
60368;SDS011;46208;44.634;10.492;2023-04-12T04:24:14;1.35;;;1.17;;
60368;SDS011;46208;44.634;10.492;2023-04-12T04:30:28;3.03;;;0.93;;
60368;SDS011;46208;44.634;10.492;2023-04-12T04:33:32;1.20;;;1.10;;
60368;SDS011;46208;44.634;10.492;2023-04-12T04:36:37;1.52;;;1.42;;
60368;SDS011;46208;44.634;10.492;2023-04-12T04:39:42;1.13;;;0.70;;
60368;SDS011;46208;44.634;10.492;2023-04-12T04:42:46;2.22;;;1.58;;
60368;SDS011;46208;44.634;10.492;2023-04-12T04:45:58;2.35;;;1.50;;
60368;SDS011;46208;44.634;10.492;2023-04-12T04:49:02;2.72;;;2.15;;
60368;SDS011;46208;44.634;10.492;2023-04-12T04:52:06;1.65;;;1.05;;
60368;SDS011;46208;44.634;10.492;2023-04-12T04:55:11;2.53;;;1.50;;
60368;SDS011;46208;44.634;10.492;2023-04-12T05:01:23;2.28;;;1.10;;
60368;SDS011;46208;44.634;10.492;2023-04-12T05:04:31;2.00;;;1.73;;
60368;SDS011;46208;44.634;10.492;2023-04-12T05:07:34;1.52;;;1.27;;
60368;SDS011;46208;44.634;10.492;2023-04-12T05:10:39;3.92;;;2.33;;
60368;SDS011;46208;44.634;10.492;2023-04-12T05:13:43;1.92;;;1.40;;
60368;SDS011;46208;44.634;10.492;2023-04-12T05:16:46;1.63;;;1.50;;
60368;SDS011;46208;44.634;10.492;2023-04-12T05:19:50;1.83;;;1.60;;
60368;SDS011;46208;44.634;10.492;2023-04-12T05:22:54;2.08;;;1.60;;
60368;SDS011;46208;44.634;10.492;2023-04-12T05:25:57;1.75;;;1.65;;
60368;SDS011;46208;44.634;10.492;2023-04-12T05:29:02;3.58;;;2.67;;
60368;SDS011;46208;44.634;10.492;2023-04-12T05:32:05;4.38;;;1.88;;
60368;SDS011;46208;44.634;10.492;2023-04-12T05:35:09;2.88;;;2.13;;
60368;SDS011;46208;44.634;10.492;2023-04-12T05:38:15;2.88;;;2.03;;
60368;SDS011;46208;44.634;10.492;2023-04-12T05:41:21;3.40;;;2.33;;
60368;SDS011;46208;44.634;10.492;2023-04-12T05:44:25;3.40;;;2.03;;
60368;SDS011;46208;44.634;10.492;2023-04-12T05:47:28;1.75;;;1.65;;
60368;SDS011;46208;44.634;10.492;2023-04-12T05:50:33;3.75;;;1.92;;
60368;SDS011;46208;44.634;10.492;2023-04-12T05:53:37;2.40;;;2.10;;
60368;SDS011;46208;44.634;10.492;2023-04-12T05:56:42;3.92;;;2.50;;
60368;SDS011;46208;44.634;10.492;2023-04-12T05:59:46;4.63;;;2.42;;
60368;SDS011;46208;44.634;10.492;2023-04-12T06:02:49;1.55;;;1.45;;
60368;SDS011;46208;44.634;10.492;2023-04-12T06:05:54;6.82;;;2.47;;
60368;SDS011;46208;44.634;10.492;2023-04-12T06:08:58;2.67;;;2.20;;
60368;SDS011;46208;44.634;10.492;2023-04-12T06:12:05;1.80;;;1.65;;
60368;SDS011;46208;44.634;10.492;2023-04-12T06:15:11;3.35;;;2.50;;
60368;SDS011;46208;44.634;10.492;2023-04-12T06:18:15;8.77;;;3.50;;
60368;SDS011;46208;44.634;10.492;2023-04-12T06:21:19;4.53;;;3.40;;
60368;SDS011;46208;44.634;10.492;2023-04-12T06:24:22;3.45;;;3.20;;
60368;SDS011;46208;44.634;10.492;2023-04-12T06:27:26;5.40;;;3.88;;
60368;SDS011;46208;44.634;10.492;2023-04-12T06:30:29;4.97;;;3.40;;
60368;SDS011;46208;44.634;10.492;2023-04-12T06:33:33;3.38;;;2.42;;
60368;SDS011;46208;44.634;10.492;2023-04-12T06:36:39;3.65;;;2.60;;
60368;SDS011;46208;44.634;10.492;2023-04-12T06:39:43;2.45;;;2.25;;
60368;SDS011;46208;44.634;10.492;2023-04-12T06:42:46;4.47;;;2.00;;
60368;SDS011;46208;44.634;10.492;2023-04-12T06:45:54;2.85;;;1.63;;
60368;SDS011;46208;44.634;10.492;2023-04-12T06:48:59;2.85;;;2.05;;
60368;SDS011;46208;44.634;10.492;2023-04-12T06:52:02;1.95;;;1.73;;
60368;SDS011;46208;44.634;10.492;2023-04-12T06:55:05;2.30;;;2.05;;
60368;SDS011;46208;44.634;10.492;2023-04-12T06:58:09;2.58;;;2.38;;
60368;SDS011;46208;44.634;10.492;2023-04-12T07:01:13;3.22;;;2.40;;
60368;SDS011;46208;44.634;10.492;2023-04-12T07:04:16;3.58;;;2.33;;
60368;SDS011;46208;44.634;10.492;2023-04-12T07:07:19;2.53;;;2.33;;
60368;SDS011;46208;44.634;10.492;2023-04-12T07:10:23;2.15;;;1.77;;
60368;SDS011;46208;44.634;10.492;2023-04-12T07:13:27;3.97;;;2.20;;
60368;SDS011;46208;44.634;10.492;2023-04-12T07:16:30;2.30;;;2.10;;
60368;SDS011;46208;44.634;10.492;2023-04-12T07:19:35;4.63;;;2.10;;
60368;SDS011;46208;44.634;10.492;2023-04-12T07:22:38;3.22;;;2.90;;
60368;SDS011;46208;44.634;10.492;2023-04-12T07:25:42;2.53;;;2.33;;
60368;SDS011;46208;44.634;10.492;2023-04-12T07:28:45;3.50;;;2.10;;
60368;SDS011;46208;44.634;10.492;2023-04-12T07:31:48;3.13;;;2.20;;
60368;SDS011;46208;44.634;10.492;2023-04-12T07:34:51;3.40;;;2.15;;
60368;SDS011;46208;44.634;10.492;2023-04-12T07:37:54;4.18;;;2.28;;
60368;SDS011;46208;44.634;10.492;2023-04-12T07:40:58;3.53;;;1.80;;
60368;SDS011;46208;44.634;10.492;2023-04-12T07:44:01;4.78;;;3.53;;
60368;SDS011;46208;44.634;10.492;2023-04-12T07:47:04;3.47;;;2.75;;
60368;SDS011;46208;44.634;10.492;2023-04-12T07:50:08;5.35;;;3.95;;
60368;SDS011;46208;44.634;10.492;2023-04-12T07:53:18;3.42;;;2.60;;
60368;SDS011;46208;44.634;10.492;2023-04-12T07:56:22;4.07;;;2.45;;
60368;SDS011;46208;44.634;10.492;2023-04-12T07:59:25;5.10;;;3.33;;
60368;SDS011;46208;44.634;10.492;2023-04-12T08:02:28;5.65;;;3.13;;
60368;SDS011;46208;44.634;10.492;2023-04-12T08:05:32;3.40;;;2.40;;
60368;SDS011;46208;44.634;10.492;2023-04-12T08:08:35;5.85;;;3.10;;
60368;SDS011;46208;44.634;10.492;2023-04-12T08:11:39;6.18;;;3.13;;
60368;SDS011;46208;44.634;10.492;2023-04-12T08:14:42;5.28;;;3.45;;
60368;SDS011;46208;44.634;10.492;2023-04-12T08:17:45;5.70;;;3.25;;
60368;SDS011;46208;44.634;10.492;2023-04-12T08:20:50;4.40;;;3.72;;
60368;SDS011;46208;44.634;10.492;2023-04-12T08:23:54;3.88;;;3.03;;
60368;SDS011;46208;44.634;10.492;2023-04-12T08:26:57;6.55;;;4.00;;
60368;SDS011;46208;44.634;10.492;2023-04-12T08:30:01;5.78;;;3.30;;
60368;SDS011;46208;44.634;10.492;2023-04-12T08:33:05;4.13;;;3.25;;
60368;SDS011;46208;44.634;10.492;2023-04-12T08:36:08;7.68;;;3.85;;
60368;SDS011;46208;44.634;10.492;2023-04-12T08:39:12;7.65;;;3.67;;
60368;SDS011;46208;44.634;10.492;2023-04-12T08:42:15;4.10;;;2.72;;
60368;SDS011;46208;44.634;10.492;2023-04-12T08:45:19;6.20;;;3.63;;
60368;SDS011;46208;44.634;10.492;2023-04-12T08:48:23;6.50;;;4.18;;
60368;SDS011;46208;44.634;10.492;2023-04-12T08:51:28;8.80;;;4.55;;
60368;SDS011;46208;44.634;10.492;2023-04-12T08:54:31;6.72;;;3.90;;
60368;SDS011;46208;44.634;10.492;2023-04-12T08:57:34;10.02;;;3.65;;
60368;SDS011;46208;44.634;10.492;2023-04-12T09:00:38;6.93;;;3.85;;
60368;SDS011;46208;44.634;10.492;2023-04-12T09:03:42;5.40;;;3.72;;
60368;SDS011;46208;44.634;10.492;2023-04-12T09:06:45;4.55;;;3.38;;
60368;SDS011;46208;44.634;10.492;2023-04-12T09:09:49;6.18;;;3.30;;
60368;SDS011;46208;44.634;10.492;2023-04-12T09:12:53;5.00;;;3.65;;
60368;SDS011;46208;44.634;10.492;2023-04-12T09:15:56;7.35;;;4.22;;
60368;SDS011;46208;44.634;10.492;2023-04-12T09:18:59;7.00;;;4.55;;
60368;SDS011;46208;44.634;10.492;2023-04-12T09:22:04;11.98;;;5.63;;
60368;SDS011;46208;44.634;10.492;2023-04-12T09:25:07;8.63;;;5.07;;
60368;SDS011;46208;44.634;10.492;2023-04-12T09:28:16;8.07;;;5.90;;
60368;SDS011;46208;44.634;10.492;2023-04-12T09:31:21;5.93;;;3.60;;
60368;SDS011;46208;44.634;10.492;2023-04-12T09:34:24;10.45;;;6.03;;
60368;SDS011;46208;44.634;10.492;2023-04-12T09:37:27;8.40;;;5.63;;
60368;SDS011;46208;44.634;10.492;2023-04-12T09:40:31;15.77;;;5.43;;
60368;SDS011;46208;44.634;10.492;2023-04-12T09:43:38;10.35;;;5.63;;
60368;SDS011;46208;44.634;10.492;2023-04-12T09:46:50;15.23;;;7.00;;
60368;SDS011;46208;44.634;10.492;2023-04-12T09:49:56;6.90;;;5.03;;
60368;SDS011;46208;44.634;10.492;2023-04-12T09:53:00;11.23;;;6.85;;
60368;SDS011;46208;44.634;10.492;2023-04-12T09:56:04;14.63;;;6.03;;
60368;SDS011;46208;44.634;10.492;2023-04-12T09:59:10;7.80;;;4.72;;
60368;SDS011;46208;44.634;10.492;2023-04-12T10:02:15;11.10;;;5.90;;
60368;SDS011;46208;44.634;10.492;2023-04-12T10:05:19;10.10;;;6.22;;
60368;SDS011;46208;44.634;10.492;2023-04-12T10:08:23;13.38;;;6.60;;
60368;SDS011;46208;44.634;10.492;2023-04-12T10:11:27;8.27;;;5.53;;
60368;SDS011;46208;44.634;10.492;2023-04-12T10:14:31;10.65;;;6.68;;
60368;SDS011;46208;44.634;10.492;2023-04-12T10:17:34;11.40;;;7.30;;
60368;SDS011;46208;44.634;10.492;2023-04-12T10:20:39;10.32;;;6.07;;
60368;SDS011;46208;44.634;10.492;2023-04-12T10:23:45;9.75;;;6.78;;
60368;SDS011;46208;44.634;10.492;2023-04-12T10:26:50;12.95;;;7.30;;
60368;SDS011;46208;44.634;10.492;2023-04-12T10:29:53;12.82;;;6.97;;
60368;SDS011;46208;44.634;10.492;2023-04-12T10:36:07;12.48;;;6.75;;
60368;SDS011;46208;44.634;10.492;2023-04-12T10:39:14;10.73;;;5.22;;
60368;SDS011;46208;44.634;10.492;2023-04-12T10:42:17;13.88;;;5.60;;
60368;SDS011;46208;44.634;10.492;2023-04-12T10:48:37;12.75;;;6.03;;
60368;SDS011;46208;44.634;10.492;2023-04-12T10:55:26;10.48;;;6.30;;
60368;SDS011;46208;44.634;10.492;2023-04-12T11:02:09;10.02;;;6.22;;
60368;SDS011;46208;44.634;10.492;2023-04-12T11:05:13;9.82;;;5.40;;
60368;SDS011;46208;44.634;10.492;2023-04-12T11:08:31;12.60;;;6.47;;
60368;SDS011;46208;44.634;10.492;2023-04-12T11:15:10;11.73;;;6.70;;
60368;SDS011;46208;44.634;10.492;2023-04-12T11:18:29;7.65;;;4.35;;
60368;SDS011;46208;44.634;10.492;2023-04-12T11:21:35;10.75;;;4.60;;
60368;SDS011;46208;44.634;10.492;2023-04-12T11:24:46;8.45;;;4.57;;
60368;SDS011;46208;44.634;10.492;2023-04-12T11:27:50;12.10;;;7.30;;
60368;SDS011;46208;44.634;10.492;2023-04-12T11:30:54;7.70;;;5.30;;
60368;SDS011;46208;44.634;10.492;2023-04-12T11:33:58;8.93;;;5.32;;
60368;SDS011;46208;44.634;10.492;2023-04-12T11:37:02;11.18;;;6.40;;
60368;SDS011;46208;44.634;10.492;2023-04-12T11:40:10;8.75;;;5.82;;
60368;SDS011;46208;44.634;10.492;2023-04-12T11:43:18;9.35;;;6.18;;
60368;SDS011;46208;44.634;10.492;2023-04-12T11:46:21;5.68;;;3.95;;
60368;SDS011;46208;44.634;10.492;2023-04-12T11:49:24;12.27;;;7.13;;
60368;SDS011;46208;44.634;10.492;2023-04-12T11:52:30;8.75;;;5.97;;
60368;SDS011;46208;44.634;10.492;2023-04-12T11:55:34;8.90;;;5.22;;
60368;SDS011;46208;44.634;10.492;2023-04-12T11:58:37;15.35;;;7.55;;
60368;SDS011;46208;44.634;10.492;2023-04-12T12:01:41;12.45;;;6.97;;
60368;SDS011;46208;44.634;10.492;2023-04-12T12:04:45;8.63;;;5.40;;
60368;SDS011;46208;44.634;10.492;2023-04-12T12:07:49;12.50;;;4.90;;
60368;SDS011;46208;44.634;10.492;2023-04-12T12:10:54;9.38;;;5.90;;
60368;SDS011;46208;44.634;10.492;2023-04-12T12:13:57;11.23;;;5.30;;
60368;SDS011;46208;44.634;10.492;2023-04-12T12:17:01;7.85;;;5.63;;
60368;SDS011;46208;44.634;10.492;2023-04-12T12:20:05;8.65;;;4.93;;
60368;SDS011;46208;44.634;10.492;2023-04-12T12:23:08;15.38;;;9.70;;
60368;SDS011;46208;44.634;10.492;2023-04-12T12:26:22;12.82;;;7.90;;
60368;SDS011;46208;44.634;10.492;2023-04-12T12:29:25;10.07;;;5.78;;
60368;SDS011;46208;44.634;10.492;2023-04-12T12:32:32;10.57;;;5.95;;
60368;SDS011;46208;44.634;10.492;2023-04-12T12:35:37;14.38;;;7.05;;
60368;SDS011;46208;44.634;10.492;2023-04-12T12:38:40;8.07;;;6.70;;
60368;SDS011;46208;44.634;10.492;2023-04-12T12:41:51;8.65;;;4.68;;
60368;SDS011;46208;44.634;10.492;2023-04-12T12:44:54;8.95;;;5.97;;
60368;SDS011;46208;44.634;10.492;2023-04-12T12:47:59;11.35;;;6.38;;
60368;SDS011;46208;44.634;10.492;2023-04-12T12:51:04;14.57;;;7.15;;
60368;SDS011;46208;44.634;10.492;2023-04-12T12:54:07;10.98;;;6.45;;
60368;SDS011;46208;44.634;10.492;2023-04-12T12:57:11;10.75;;;6.93;;
60368;SDS011;46208;44.634;10.492;2023-04-12T13:00:15;8.80;;;5.15;;
60368;SDS011;46208;44.634;10.492;2023-04-12T13:03:19;8.60;;;6.68;;
60368;SDS011;46208;44.634;10.492;2023-04-12T13:06:23;14.48;;;7.30;;
60368;SDS011;46208;44.634;10.492;2023-04-12T13:09:30;13.95;;;7.50;;
60368;SDS011;46208;44.634;10.492;2023-04-12T13:12:33;8.02;;;5.43;;
60368;SDS011;46208;44.634;10.492;2023-04-12T13:15:37;7.85;;;5.20;;
60368;SDS011;46208;44.634;10.492;2023-04-12T13:18:40;7.60;;;6.10;;
60368;SDS011;46208;44.634;10.492;2023-04-12T13:21:44;15.35;;;7.20;;
60368;SDS011;46208;44.634;10.492;2023-04-12T13:24:48;9.23;;;6.40;;
60368;SDS011;46208;44.634;10.492;2023-04-12T13:27:51;11.40;;;7.80;;
60368;SDS011;46208;44.634;10.492;2023-04-12T13:30:55;11.82;;;6.13;;
60368;SDS011;46208;44.634;10.492;2023-04-12T13:33:58;11.40;;;6.07;;
60368;SDS011;46208;44.634;10.492;2023-04-12T13:37:01;7.32;;;5.45;;
60368;SDS011;46208;44.634;10.492;2023-04-12T13:40:05;10.95;;;6.70;;
60368;SDS011;46208;44.634;10.492;2023-04-12T13:43:09;9.10;;;5.60;;
60368;SDS011;46208;44.634;10.492;2023-04-12T13:46:12;14.20;;;6.80;;
60368;SDS011;46208;44.634;10.492;2023-04-12T13:49:15;9.90;;;6.28;;
60368;SDS011;46208;44.634;10.492;2023-04-12T13:52:18;10.73;;;5.53;;
60368;SDS011;46208;44.634;10.492;2023-04-12T13:55:23;10.50;;;6.43;;
60368;SDS011;46208;44.634;10.492;2023-04-12T13:58:26;11.90;;;5.80;;
60368;SDS011;46208;44.634;10.492;2023-04-12T14:01:29;8.18;;;5.00;;
60368;SDS011;46208;44.634;10.492;2023-04-12T14:04:32;8.35;;;5.20;;
60368;SDS011;46208;44.634;10.492;2023-04-12T14:07:36;7.75;;;5.68;;
60368;SDS011;46208;44.634;10.492;2023-04-12T14:10:40;8.10;;;5.45;;
60368;SDS011;46208;44.634;10.492;2023-04-12T14:13:43;11.63;;;6.53;;
60368;SDS011;46208;44.634;10.492;2023-04-12T14:16:47;8.68;;;4.85;;
60368;SDS011;46208;44.634;10.492;2023-04-12T14:19:51;9.63;;;5.47;;
60368;SDS011;46208;44.634;10.492;2023-04-12T14:22:54;9.25;;;5.15;;
60368;SDS011;46208;44.634;10.492;2023-04-12T14:25:58;10.02;;;5.03;;
60368;SDS011;46208;44.634;10.492;2023-04-12T14:29:02;6.57;;;5.03;;
60368;SDS011;46208;44.634;10.492;2023-04-12T14:32:05;7.63;;;4.75;;
60368;SDS011;46208;44.634;10.492;2023-04-12T14:35:08;6.82;;;5.07;;
60368;SDS011;46208;44.634;10.492;2023-04-12T14:38:11;7.95;;;4.45;;
60368;SDS011;46208;44.634;10.492;2023-04-12T14:41:15;7.68;;;4.57;;
60368;SDS011;46208;44.634;10.492;2023-04-12T14:44:19;9.63;;;6.53;;
60368;SDS011;46208;44.634;10.492;2023-04-12T14:47:22;7.47;;;5.38;;
60368;SDS011;46208;44.634;10.492;2023-04-12T14:50:25;8.52;;;5.00;;
60368;SDS011;46208;44.634;10.492;2023-04-12T14:53:32;8.85;;;5.00;;
60368;SDS011;46208;44.634;10.492;2023-04-12T14:56:36;10.02;;;5.93;;
60368;SDS011;46208;44.634;10.492;2023-04-12T14:59:40;12.00;;;6.15;;
60368;SDS011;46208;44.634;10.492;2023-04-12T15:02:43;8.88;;;4.85;;
60368;SDS011;46208;44.634;10.492;2023-04-12T15:05:48;10.15;;;5.25;;
60368;SDS011;46208;44.634;10.492;2023-04-12T15:08:52;9.68;;;5.88;;
60368;SDS011;46208;44.634;10.492;2023-04-12T15:11:59;6.85;;;5.45;;
60368;SDS011;46208;44.634;10.492;2023-04-12T15:15:05;9.82;;;5.55;;
60368;SDS011;46208;44.634;10.492;2023-04-12T15:18:09;7.90;;;4.72;;
60368;SDS011;46208;44.634;10.492;2023-04-12T15:21:13;10.57;;;5.55;;
60368;SDS011;46208;44.634;10.492;2023-04-12T15:24:17;9.07;;;5.72;;
60368;SDS011;46208;44.634;10.492;2023-04-12T15:27:20;7.22;;;4.75;;
60368;SDS011;46208;44.634;10.492;2023-04-12T15:30:24;9.35;;;5.93;;
60368;SDS011;46208;44.634;10.492;2023-04-12T15:33:27;13.00;;;5.47;;
60368;SDS011;46208;44.634;10.492;2023-04-12T15:36:31;8.18;;;5.15;;
60368;SDS011;46208;44.634;10.492;2023-04-12T15:39:43;8.60;;;5.43;;
60368;SDS011;46208;44.634;10.492;2023-04-12T15:42:46;7.32;;;4.22;;
60368;SDS011;46208;44.634;10.492;2023-04-12T15:45:50;5.95;;;4.80;;
60368;SDS011;46208;44.634;10.492;2023-04-12T15:48:56;9.52;;;5.25;;
60368;SDS011;46208;44.634;10.492;2023-04-12T15:52:00;8.80;;;5.28;;
60368;SDS011;46208;44.634;10.492;2023-04-12T15:55:03;9.40;;;5.72;;
60368;SDS011;46208;44.634;10.492;2023-04-12T15:58:06;7.63;;;4.80;;
60368;SDS011;46208;44.634;10.492;2023-04-12T16:01:11;6.32;;;4.82;;
60368;SDS011;46208;44.634;10.492;2023-04-12T16:04:14;11.93;;;5.63;;
60368;SDS011;46208;44.634;10.492;2023-04-12T16:07:20;8.35;;;5.38;;
60368;SDS011;46208;44.634;10.492;2023-04-12T16:10:23;7.63;;;4.15;;
60368;SDS011;46208;44.634;10.492;2023-04-12T16:13:27;5.88;;;4.43;;
60368;SDS011;46208;44.634;10.492;2023-04-12T16:16:30;8.15;;;4.93;;
60368;SDS011;46208;44.634;10.492;2023-04-12T16:19:34;9.02;;;5.05;;
60368;SDS011;46208;44.634;10.492;2023-04-12T16:22:37;12.05;;;5.45;;
60368;SDS011;46208;44.634;10.492;2023-04-12T16:25:42;7.25;;;4.25;;
60368;SDS011;46208;44.634;10.492;2023-04-12T16:28:49;7.97;;;4.45;;
60368;SDS011;46208;44.634;10.492;2023-04-12T16:31:54;6.72;;;4.60;;
60368;SDS011;46208;44.634;10.492;2023-04-12T16:34:57;8.07;;;5.75;;
60368;SDS011;46208;44.634;10.492;2023-04-12T16:38:00;7.00;;;4.53;;
60368;SDS011;46208;44.634;10.492;2023-04-12T16:41:04;5.90;;;4.20;;
60368;SDS011;46208;44.634;10.492;2023-04-12T16:44:08;6.53;;;4.50;;
60368;SDS011;46208;44.634;10.492;2023-04-12T16:47:11;9.43;;;6.05;;
60368;SDS011;46208;44.634;10.492;2023-04-12T16:50:15;10.07;;;4.90;;
60368;SDS011;46208;44.634;10.492;2023-04-12T16:53:18;6.70;;;5.63;;
60368;SDS011;46208;44.634;10.492;2023-04-12T16:56:21;7.55;;;4.22;;
60368;SDS011;46208;44.634;10.492;2023-04-12T16:59:26;16.02;;;5.07;;
60368;SDS011;46208;44.634;10.492;2023-04-12T17:02:29;29.13;;;14.90;;
60368;SDS011;46208;44.634;10.492;2023-04-12T17:05:33;15.52;;;6.90;;
60368;SDS011;46208;44.634;10.492;2023-04-12T17:08:37;7.43;;;4.57;;
60368;SDS011;46208;44.634;10.492;2023-04-12T17:11:40;11.63;;;4.38;;
60368;SDS011;46208;44.634;10.492;2023-04-12T17:14:43;8.60;;;5.20;;
60368;SDS011;46208;44.634;10.492;2023-04-12T17:17:48;6.95;;;4.15;;
60368;SDS011;46208;44.634;10.492;2023-04-12T17:20:52;8.35;;;4.60;;
60368;SDS011;46208;44.634;10.492;2023-04-12T17:23:55;4.88;;;4.20;;
60368;SDS011;46208;44.634;10.492;2023-04-12T17:26:58;10.10;;;6.38;;
60368;SDS011;46208;44.634;10.492;2023-04-12T17:30:03;26.95;;;12.55;;
60368;SDS011;46208;44.634;10.492;2023-04-12T17:33:07;15.07;;;8.30;;
60368;SDS011;46208;44.634;10.492;2023-04-12T17:36:10;7.70;;;5.10;;
60368;SDS011;46208;44.634;10.492;2023-04-12T17:39:13;5.68;;;5.03;;
60368;SDS011;46208;44.634;10.492;2023-04-12T17:42:17;8.02;;;4.60;;
60368;SDS011;46208;44.634;10.492;2023-04-12T17:45:21;7.18;;;4.70;;
60368;SDS011;46208;44.634;10.492;2023-04-12T17:48:26;7.05;;;4.53;;
60368;SDS011;46208;44.634;10.492;2023-04-12T17:51:29;9.35;;;4.90;;
60368;SDS011;46208;44.634;10.492;2023-04-12T17:54:34;9.18;;;4.03;;
60368;SDS011;46208;44.634;10.492;2023-04-12T17:57:38;6.70;;;4.00;;
60368;SDS011;46208;44.634;10.492;2023-04-12T18:00:42;4.32;;;3.03;;
60368;SDS011;46208;44.634;10.492;2023-04-12T18:03:45;6.40;;;4.15;;
60368;SDS011;46208;44.634;10.492;2023-04-12T18:06:49;5.30;;;3.58;;
60368;SDS011;46208;44.634;10.492;2023-04-12T18:09:54;5.85;;;3.97;;
60368;SDS011;46208;44.634;10.492;2023-04-12T18:12:57;8.60;;;4.30;;
60368;SDS011;46208;44.634;10.492;2023-04-12T18:16:00;6.43;;;3.72;;
60368;SDS011;46208;44.634;10.492;2023-04-12T18:19:03;10.35;;;5.10;;
60368;SDS011;46208;44.634;10.492;2023-04-12T18:22:07;5.00;;;3.58;;
60368;SDS011;46208;44.634;10.492;2023-04-12T18:25:10;6.30;;;4.15;;
60368;SDS011;46208;44.634;10.492;2023-04-12T18:28:15;7.63;;;4.10;;
60368;SDS011;46208;44.634;10.492;2023-04-12T18:31:20;8.57;;;4.25;;
60368;SDS011;46208;44.634;10.492;2023-04-12T18:34:23;5.53;;;3.78;;
60368;SDS011;46208;44.634;10.492;2023-04-12T18:37:27;7.05;;;4.22;;
60368;SDS011;46208;44.634;10.492;2023-04-12T18:40:34;5.95;;;4.28;;
60368;SDS011;46208;44.634;10.492;2023-04-12T18:43:38;4.95;;;3.47;;